createdAt,value
2018-09-02T00:00:39.613Z,12.13
2018-09-02T00:03:08.249Z,9.47
2018-09-02T00:05:36.903Z,10.87
2018-09-02T00:08:05.519Z,9.93
2018-09-02T00:10:34.214Z,9.13
2018-09-02T00:13:02.891Z,9.90
2018-09-02T00:15:31.626Z,11.80
2018-09-02T00:18:00.361Z,15.73
2018-09-02T00:20:29.055Z,10.83
2018-09-02T00:22:57.656Z,15.50
2018-09-02T00:25:26.281Z,12.50
2018-09-02T00:27:54.962Z,13.43
2018-09-02T00:30:23.708Z,11.63
2018-09-02T00:32:52.429Z,20.47
2018-09-02T00:35:21.109Z,15.60
2018-09-02T00:37:49.825Z,12.90
2018-09-02T00:40:18.500Z,22.63
2018-09-02T00:42:47.136Z,8.40
2018-09-02T00:45:15.813Z,10.20
2018-09-02T00:47:44.456Z,7.03
2018-09-02T00:50:13.088Z,8.47
2018-09-02T00:52:41.821Z,9.30
2018-09-02T00:55:17.072Z,9.30
2018-09-02T00:57:45.770Z,9.23
2018-09-02T01:00:14.484Z,12.07
2018-09-02T01:02:43.159Z,10.20
2018-09-02T01:05:11.854Z,10.30
2018-09-02T01:07:40.549Z,10.40
2018-09-02T01:10:09.225Z,12.30
2018-09-02T01:12:38.141Z,8.40
2018-09-02T01:15:07.199Z,9.73
2018-09-02T01:17:35.811Z,10.30
2018-09-02T01:20:04.568Z,12.93
2018-09-02T01:22:33.244Z,10.73
2018-09-02T01:25:01.901Z,8.83
2018-09-02T01:27:30.661Z,10.63
2018-09-02T01:29:59.370Z,9.03
2018-09-02T01:32:28.024Z,11.60
2018-09-02T01:34:56.680Z,8.20
2018-09-02T01:37:25.335Z,10.83
2018-09-02T01:39:54.070Z,11.03
2018-09-02T01:42:22.746Z,10.23
2018-09-02T01:44:51.411Z,12.03
2018-09-02T01:47:20.056Z,7.83
2018-09-02T01:49:48.772Z,12.90
2018-09-02T01:52:17.428Z,10.47
2018-09-02T01:54:46.062Z,7.90
2018-09-02T01:57:14.763Z,10.17
2018-09-02T01:59:43.448Z,10.40
2018-09-02T02:02:12.149Z,10.50
2018-09-02T02:04:42.303Z,10.13
2018-09-02T02:07:12.600Z,12.13
2018-09-02T02:09:41.637Z,9.40
2018-09-02T02:12:10.275Z,7.77
2018-09-02T02:14:38.946Z,8.97
2018-09-02T02:17:07.601Z,9.10
2018-09-02T02:19:36.297Z,9.83
2018-09-02T02:22:04.971Z,9.37
2018-09-02T02:24:33.627Z,20.07
2018-09-02T02:27:02.355Z,11.73
2018-09-02T02:29:31.038Z,9.13
2018-09-02T02:31:59.693Z,20.67
2018-09-02T02:34:28.328Z,8.77
2018-09-02T02:36:57.023Z,12.73
2018-09-02T02:39:25.723Z,10.13
2018-09-02T02:41:54.355Z,8.37
2018-09-02T02:44:23.132Z,15.57
2018-09-02T02:46:51.740Z,10.20
2018-09-02T02:49:20.402Z,13.77
2018-09-02T02:51:49.097Z,11.20
2018-09-02T02:54:17.675Z,11.90
2018-09-02T02:56:46.337Z,11.10
2018-09-02T02:59:15.021Z,7.97
2018-09-02T03:01:43.678Z,14.50
2018-09-02T03:04:12.373Z,9.80
2018-09-02T03:06:41.008Z,7.83
2018-09-02T03:09:10.868Z,10.50
2018-09-02T03:11:39.548Z,11.93
2018-09-02T03:14:08.934Z,11.97
2018-09-02T03:16:37.662Z,14.97
2018-09-02T03:19:06.645Z,10.50
2018-09-02T03:21:35.300Z,9.70
2018-09-02T03:24:04.096Z,12.63
2018-09-02T03:26:32.851Z,10.13
2018-09-02T03:29:01.507Z,11.17
2018-09-02T03:31:30.232Z,16.27
2018-09-02T03:33:58.917Z,10.43
2018-09-02T03:36:27.593Z,13.47
2018-09-02T03:38:56.248Z,11.20
2018-09-02T03:41:25.143Z,12.37
2018-09-02T03:43:53.820Z,8.50
2018-09-02T03:46:22.514Z,10.20
2018-09-02T03:48:51.229Z,10.67
2018-09-02T03:51:19.903Z,11.53
2018-09-02T03:53:48.560Z,12.27
2018-09-02T03:56:17.316Z,13.37
2018-09-02T03:58:46.090Z,11.40
2018-09-02T04:01:14.746Z,9.63
2018-09-02T04:03:43.380Z,14.00
2018-09-02T04:06:12.012Z,11.90
2018-09-02T04:08:40.691Z,14.77
2018-09-02T04:11:09.505Z,15.77
2018-09-02T04:13:38.210Z,11.37
2018-09-02T04:16:06.997Z,17.10
2018-09-02T04:18:35.695Z,10.30
2018-09-02T04:21:04.449Z,13.63
2018-09-02T04:23:33.063Z,11.40
2018-09-02T04:26:01.698Z,16.73
2018-09-02T04:28:30.341Z,12.17
2018-09-02T04:30:59.009Z,11.73
2018-09-02T04:33:29.814Z,15.50
2018-09-02T04:36:03.916Z,15.90
2018-09-02T04:38:39.990Z,17.03
2018-09-02T04:44:31.015Z,14.10
2018-09-02T04:47:02.715Z,16.60
2018-09-02T04:49:33.432Z,11.70
2018-09-02T04:52:02.610Z,19.43
2018-09-02T04:54:31.830Z,12.70
2018-09-02T04:57:00.890Z,17.27
2018-09-02T04:59:29.593Z,15.70
2018-09-02T05:01:58.294Z,18.10
2018-09-02T05:04:27.020Z,17.30
2018-09-02T05:06:55.616Z,15.27
2018-09-02T05:09:24.191Z,21.80
2018-09-02T05:11:52.866Z,18.27
2018-09-02T05:14:21.377Z,18.80
2018-09-02T05:16:50.076Z,19.37
2018-09-02T05:19:18.737Z,21.43
2018-09-02T05:21:47.506Z,20.40
2018-09-02T05:24:16.022Z,18.33
2018-09-02T05:26:44.956Z,15.90
2018-09-02T05:29:13.671Z,16.13
2018-09-02T05:31:42.357Z,16.73
2018-09-02T05:34:11.017Z,15.57
2018-09-02T05:36:39.535Z,20.33
2018-09-02T05:39:09.821Z,17.40
2018-09-02T05:41:38.686Z,14.20
2018-09-02T05:44:07.345Z,21.43
2018-09-02T05:46:35.936Z,14.23
2018-09-02T05:49:04.631Z,15.67
2018-09-02T05:51:33.425Z,12.83
2018-09-02T05:54:02.021Z,10.30
2018-09-02T05:58:58.340Z,10.47
2018-09-02T06:16:14.346Z,11.03
2018-09-02T06:21:11.204Z,13.03
2018-09-02T06:26:08.057Z,12.70
2018-09-02T06:28:36.869Z,16.50
2018-09-02T09:38:44.701Z,2.17
2018-09-02T09:43:41.670Z,2.80
2018-09-02T10:03:33.624Z,5.73
2018-09-02T10:06:02.208Z,3.50
2018-09-02T10:08:31.453Z,4.97
2018-09-02T10:11:00.393Z,4.10
2018-09-02T10:13:29.374Z,3.43
2018-09-02T10:15:58.290Z,4.80
2018-09-02T10:18:27.065Z,4.40
2018-09-02T10:20:55.878Z,5.17
2018-09-02T10:23:28.703Z,4.77
2018-09-02T10:25:58.612Z,6.97
2018-09-02T10:28:27.216Z,11.53
2018-09-02T10:31:04.241Z,5.30
2018-09-02T10:33:34.717Z,3.13
2018-09-02T10:36:03.734Z,3.93
2018-09-02T10:38:32.428Z,5.97
2018-09-02T10:41:01.206Z,4.27
2018-09-02T10:43:29.823Z,3.07
2018-09-02T10:46:00.100Z,4.37
2018-09-02T10:48:29.106Z,8.40
2018-09-02T10:50:57.966Z,5.20
2018-09-02T10:53:28.044Z,4.73
2018-09-02T10:55:56.817Z,5.50
2018-09-02T10:58:26.832Z,4.80
2018-09-02T11:01:04.388Z,8.57
2018-09-02T11:35:51.794Z,3.70
2018-09-02T11:43:23.949Z,8.15
2018-09-02T11:48:22.356Z,6.63
2018-09-02T11:53:24.032Z,7.55
2018-09-02T11:58:21.342Z,5.73
2018-09-02T12:03:18.752Z,5.10
2018-09-02T12:13:12.370Z,5.80
2018-09-02T12:18:11.871Z,12.60
2018-09-02T12:23:08.396Z,5.20
2018-09-02T12:28:04.786Z,4.97
2018-09-02T12:33:01.658Z,3.60
2018-09-02T13:47:12.676Z,3.05
2018-09-02T13:54:38.163Z,8.45
2018-09-02T14:04:30.372Z,2.90
2018-09-02T14:11:54.717Z,3.53
2018-09-02T14:21:48.220Z,5.30
2018-09-02T14:29:13.170Z,4.70
2018-09-02T14:34:10.404Z,6.45
2018-09-02T14:41:38.504Z,10.80
2018-09-02T14:58:55.172Z,5.97
2018-09-02T15:01:23.936Z,6.00
2018-09-02T15:03:52.631Z,4.90
2018-09-02T15:06:23.239Z,4.90
2018-09-02T15:08:52.574Z,3.93
2018-09-02T15:11:24.193Z,3.10
2018-09-02T15:13:54.325Z,6.20
2018-09-02T15:16:23.401Z,3.53
2018-09-02T15:18:52.534Z,3.77
2018-09-02T15:21:21.214Z,2.70
2018-09-02T15:23:49.725Z,3.60
2018-09-02T15:26:18.600Z,8.70
2018-09-02T15:28:47.278Z,4.03
2018-09-02T15:31:15.872Z,5.23
2018-09-02T15:33:44.548Z,3.43
2018-09-02T15:36:13.080Z,4.17
2018-09-02T15:38:41.574Z,4.00
2018-09-02T16:15:59.651Z,3.45
2018-09-02T16:30:50.145Z,4.50
2018-09-02T16:33:18.986Z,5.07
2018-09-02T16:35:48.607Z,4.20
2018-09-02T16:38:17.490Z,3.53
2018-09-02T16:40:46.107Z,4.10
2018-09-02T16:43:14.983Z,3.10
2018-09-02T16:45:44.036Z,5.87
2018-09-02T16:48:12.993Z,3.50
2018-09-02T16:50:41.608Z,5.00
2018-09-02T16:53:10.305Z,8.70
2018-09-02T16:55:39.195Z,4.83
2018-09-02T16:58:08.036Z,6.03
2018-09-02T17:00:37.499Z,5.27
2018-09-02T17:03:06.306Z,3.10
2018-09-02T17:05:35.123Z,4.90
2018-09-02T17:08:03.790Z,3.93
2018-09-02T17:10:33.211Z,3.73
2018-09-02T17:13:02.634Z,9.23
2018-09-02T17:15:31.992Z,4.37
2018-09-02T17:18:00.777Z,4.73
2018-09-02T17:20:38.428Z,3.90
2018-09-02T17:23:11.189Z,3.00
2018-09-02T17:25:41.088Z,5.90
2018-09-02T17:28:09.759Z,7.43
2018-09-02T17:30:38.714Z,4.87
2018-09-02T17:33:08.151Z,5.33
2018-09-02T17:35:36.965Z,5.60
2018-09-02T17:38:05.994Z,6.20
2018-09-02T17:40:34.488Z,8.53
2018-09-02T17:43:03.472Z,3.50
2018-09-02T17:45:32.228Z,5.07
2018-09-02T17:48:01.108Z,5.80
2018-09-02T17:50:29.808Z,3.93
2018-09-02T17:52:59.113Z,7.10
2018-09-02T17:55:27.889Z,4.30
2018-09-02T17:57:56.706Z,3.17
2018-09-02T18:00:29.364Z,5.83
2018-09-02T18:02:58.382Z,3.93
2018-09-02T18:05:27.110Z,3.57
2018-09-02T18:07:56.506Z,7.30
2018-09-02T18:10:25.182Z,4.20
2018-09-02T18:12:54.141Z,3.60
2018-09-02T18:15:24.744Z,6.27
2018-09-02T18:17:53.420Z,6.67
2018-09-02T18:20:22.088Z,4.80
2018-09-02T18:22:51.166Z,4.93
2018-09-02T18:25:19.894Z,5.17
2018-09-02T18:27:52.510Z,5.00
2018-09-02T18:30:21.324Z,4.37
2018-09-02T18:35:18.390Z,4.50
2018-09-02T18:37:47.462Z,3.80
2018-09-02T18:40:17.069Z,4.37
2018-09-02T18:42:45.822Z,3.60
2018-09-02T18:45:15.085Z,5.33
2018-09-02T18:47:43.753Z,3.83
2018-09-02T18:50:12.449Z,3.47
2018-09-02T18:52:42.030Z,4.60
2018-09-02T18:55:10.720Z,3.40
2018-09-02T18:57:39.595Z,8.50
2018-09-02T19:00:08.371Z,4.13
2018-09-02T19:02:39.293Z,6.07
2018-09-02T19:05:09.517Z,8.53
2018-09-02T19:07:38.236Z,3.83
2018-09-02T19:10:07.273Z,3.70
2018-09-02T19:12:37.427Z,3.50
2018-09-02T19:15:06.544Z,5.03
2018-09-02T19:17:35.275Z,7.27
2018-09-02T19:20:04.015Z,3.77
2018-09-02T19:22:33.277Z,5.37
2018-09-02T19:25:02.080Z,6.57
2018-09-02T19:27:31.393Z,4.73
2018-09-02T19:30:07.018Z,4.53
2018-09-02T19:32:35.713Z,9.47
2018-09-02T19:35:05.887Z,4.43
2018-09-02T19:37:34.743Z,7.13
2018-09-02T19:40:03.878Z,5.23
2018-09-02T19:42:36.285Z,5.63
2018-09-02T19:45:05.289Z,5.10
2018-09-02T19:47:34.145Z,4.10
2018-09-02T19:50:02.719Z,6.40
2018-09-02T19:52:31.495Z,4.33
2018-09-02T19:55:00.851Z,3.87
2018-09-02T19:57:29.546Z,8.90
2018-09-02T19:59:58.182Z,3.40
2018-09-02T20:02:27.498Z,4.00
2018-09-02T20:05:07.512Z,4.53
2018-09-02T20:07:37.100Z,5.33
2018-09-02T20:10:07.335Z,4.30
2018-09-02T20:12:36.479Z,5.43
2018-09-02T20:15:05.497Z,3.57
2018-09-02T20:17:34.103Z,2.90
2018-09-02T20:20:03.185Z,3.13
2018-09-02T20:22:31.902Z,5.80
2018-09-02T20:25:01.384Z,4.20
2018-09-02T20:27:30.972Z,11.33
2018-09-02T20:29:59.997Z,4.87
2018-09-02T20:32:29.803Z,4.00
2018-09-02T20:34:58.416Z,5.30
2018-09-02T20:37:27.835Z,3.20
2018-09-02T20:39:56.589Z,3.30
2018-09-02T20:42:28.433Z,4.73
2018-09-02T20:44:58.400Z,4.60
2018-09-02T20:47:27.342Z,6.23
2018-09-02T20:49:58.360Z,2.70
2018-09-02T20:52:27.067Z,5.80
2018-09-02T20:54:55.722Z,4.13
2018-09-02T20:57:24.480Z,5.73
2018-09-02T20:59:53.352Z,4.70
2018-09-02T21:02:22.038Z,4.30
2018-09-02T21:04:50.765Z,3.77
2018-09-02T21:07:19.439Z,7.13
2018-09-02T21:09:48.176Z,4.20
2018-09-02T21:12:16.850Z,5.00
2018-09-02T21:14:45.526Z,7.30
2018-09-02T21:17:14.282Z,4.60
2018-09-02T21:19:42.956Z,6.90
2018-09-02T21:22:11.732Z,5.03
2018-09-02T21:24:40.368Z,5.37
2018-09-02T21:27:09.023Z,4.70
2018-09-02T21:29:37.718Z,5.50
2018-09-02T21:32:06.721Z,4.60
2018-09-02T21:34:35.550Z,3.60
2018-09-02T21:37:04.353Z,3.97
2018-09-02T21:39:33.020Z,4.00
2018-09-02T21:42:01.745Z,5.20
2018-09-02T21:44:30.472Z,5.70
2018-09-02T21:46:59.127Z,4.20
2018-09-02T21:49:27.891Z,4.63
2018-09-02T21:51:56.589Z,6.30
2018-09-02T21:54:25.271Z,5.57
2018-09-02T21:56:54.029Z,4.97
2018-09-02T21:59:22.665Z,5.70
2018-09-02T22:01:51.300Z,4.20
2018-09-02T22:04:20.084Z,4.83
2018-09-02T22:06:48.730Z,6.53
2018-09-02T22:09:18.007Z,6.17
2018-09-02T22:11:46.665Z,3.93
2018-09-02T22:14:15.338Z,4.40
2018-09-02T22:16:44.573Z,4.90
2018-09-02T22:19:13.472Z,4.30
2018-09-02T22:21:42.485Z,9.30
2018-09-02T22:24:11.159Z,6.33
2018-09-02T22:26:39.910Z,6.40
2018-09-02T22:29:08.551Z,5.50
2018-09-02T22:31:37.347Z,3.77
2018-09-02T22:34:05.982Z,8.17
2018-09-02T22:36:34.677Z,6.57
2018-09-02T22:39:04.352Z,4.70
2018-09-02T22:41:32.948Z,5.83
2018-09-02T22:44:01.580Z,5.17
2018-09-02T22:46:30.260Z,4.87
2018-09-02T22:48:58.955Z,5.60
2018-09-02T22:51:27.610Z,5.50
2018-09-02T22:53:56.305Z,5.93
2018-09-02T22:56:25.020Z,6.00
2018-09-02T22:58:53.910Z,7.90
2018-09-02T23:01:22.529Z,4.00
2018-09-02T23:03:51.127Z,5.33
2018-09-02T23:06:19.763Z,9.40
2018-09-02T23:08:48.415Z,5.67
2018-09-02T23:11:16.974Z,6.53
2018-09-02T23:13:45.669Z,6.47
2018-09-02T23:16:14.344Z,6.10
2018-09-02T23:18:42.940Z,6.50
2018-09-02T23:21:11.594Z,6.60
2018-09-02T23:23:40.271Z,5.97
2018-09-02T23:26:08.927Z,9.10
2018-09-02T23:28:37.625Z,7.13
2018-09-02T23:31:06.286Z,6.90
2018-09-02T23:33:34.881Z,6.47
2018-09-02T23:36:03.430Z,9.07
2018-09-02T23:38:32.168Z,10.57
2018-09-02T23:41:00.839Z,6.43
2018-09-02T23:43:29.595Z,8.40
2018-09-02T23:45:58.170Z,14.53
2018-09-02T23:48:26.802Z,8.63
2018-09-02T23:50:55.324Z,9.23
2018-09-02T23:53:23.797Z,6.57
2018-09-02T23:55:52.393Z,7.23
2018-09-02T23:58:21.029Z,9.03
